createdAt,value
2023-11-15T00:00:45.988Z,73.66
2023-11-15T00:03:49.872Z,75.55
2023-11-15T00:06:53.259Z,71.24
2023-11-15T00:09:55.566Z,73.21
2023-11-15T00:12:58.374Z,73.93
2023-11-15T00:16:00.973Z,73.59
2023-11-15T00:19:04.777Z,72.51
2023-11-15T00:22:07.042Z,69.45
2023-11-15T00:25:09.800Z,75.42
2023-11-15T00:28:14.551Z,76.88
2023-11-15T00:31:16.843Z,76.50
2023-11-15T00:34:19.069Z,74.80
2023-11-15T00:37:21.261Z,82.79
2023-11-15T00:40:23.474Z,80.20
2023-11-15T00:43:25.749Z,77.56
2023-11-15T00:46:28.110Z,80.10
2023-11-15T00:49:30.548Z,74.39
2023-11-15T00:52:32.717Z,79.07
2023-11-15T00:55:34.841Z,79.68
2023-11-15T00:58:40.534Z,77.14
2023-11-15T01:01:48.495Z,77.39
2023-11-15T01:04:51.855Z,74.73
2023-11-15T01:07:53.965Z,78.75
2023-11-15T01:10:56.237Z,78.70
2023-11-15T01:13:58.348Z,77.08
2023-11-15T01:17:00.488Z,76.40
2023-11-15T01:20:02.911Z,77.18
2023-11-15T01:23:06.936Z,77.74
2023-11-15T01:26:09.063Z,79.32
2023-11-15T01:29:11.191Z,78.20
2023-11-15T01:32:13.403Z,77.45
2023-11-15T01:35:34.830Z,79.88
2023-11-15T01:38:41.844Z,76.31
2023-11-15T01:41:58.901Z,72.05
2023-11-15T01:45:01.332Z,75.93
2023-11-15T01:48:03.954Z,76.01
2023-11-15T01:51:06.139Z,71.41
2023-11-15T01:54:08.261Z,73.83
2023-11-15T01:57:10.374Z,72.24
2023-11-15T02:00:12.777Z,68.81
2023-11-15T02:03:14.989Z,71.93
2023-11-15T02:06:17.251Z,71.22
2023-11-15T02:09:19.494Z,66.68
2023-11-15T02:12:21.621Z,68.91
2023-11-15T02:15:23.704Z,72.13
2023-11-15T02:18:26.867Z,70.45
2023-11-15T02:21:45.087Z,71.49
2023-11-15T02:24:47.199Z,73.42
2023-11-15T02:27:49.360Z,72.40
2023-11-15T02:30:51.620Z,73.50
2023-11-15T02:33:53.745Z,74.55
2023-11-15T02:36:57.090Z,73.91
2023-11-15T02:39:59.339Z,72.67
2023-11-15T02:43:01.456Z,68.09
2023-11-15T02:46:03.630Z,69.02
2023-11-15T02:49:05.898Z,69.95
2023-11-15T02:52:07.996Z,75.28
2023-11-15T02:55:10.165Z,73.35
2023-11-15T02:58:13.353Z,72.76
2023-11-15T03:01:17.808Z,75.13
2023-11-15T03:04:20.024Z,74.74
2023-11-15T03:07:22.160Z,75.16
2023-11-15T03:10:24.792Z,71.94
2023-11-15T03:13:26.871Z,74.93
2023-11-15T03:16:29.123Z,70.12
2023-11-15T03:19:31.220Z,71.82
2023-11-15T03:22:34.075Z,76.04
2023-11-15T03:25:36.165Z,75.33
2023-11-15T03:28:38.240Z,72.65
2023-11-15T03:31:40.358Z,73.43
2023-11-15T03:34:43.233Z,70.70
2023-11-15T03:37:45.388Z,74.55
2023-11-15T03:40:49.059Z,71.94
2023-11-15T03:43:53.105Z,73.40
2023-11-15T03:46:57.213Z,75.99
2023-11-15T03:49:59.957Z,73.55
2023-11-15T03:53:03.922Z,76.05
2023-11-15T03:56:06.467Z,75.96
2023-11-15T03:59:08.711Z,76.93
2023-11-15T04:02:10.856Z,77.18
2023-11-15T04:05:14.222Z,77.24
2023-11-15T04:08:16.511Z,77.08
2023-11-15T04:11:18.720Z,77.70
2023-11-15T04:14:23.409Z,75.33
2023-11-15T04:17:26.220Z,72.76
2023-11-15T04:20:29.156Z,73.37
2023-11-15T04:23:31.280Z,74.66
2023-11-15T04:26:33.540Z,76.97
2023-11-15T04:29:35.802Z,75.77
2023-11-15T04:32:38.002Z,74.33
2023-11-15T04:35:40.201Z,75.28
2023-11-15T04:38:42.319Z,76.91
2023-11-15T04:41:44.511Z,77.93
2023-11-15T04:44:46.993Z,78.00
2023-11-15T04:47:49.196Z,77.63
2023-11-15T04:50:51.552Z,78.41
2023-11-15T04:53:53.858Z,78.77
2023-11-15T04:56:56.053Z,78.25
2023-11-15T04:59:58.294Z,76.81
2023-11-15T05:03:04.608Z,76.18
2023-11-15T05:09:29.789Z,75.65
2023-11-15T05:12:34.926Z,75.70
2023-11-15T05:15:37.059Z,75.32
2023-11-15T05:18:41.744Z,75.15
2023-11-15T05:21:44.895Z,75.05
2023-11-15T05:24:47.100Z,74.75
2023-11-15T05:27:59.105Z,73.98
2023-11-15T05:31:02.485Z,72.91
2023-11-15T05:34:04.713Z,73.77
2023-11-15T05:37:06.839Z,76.01
2023-11-15T05:40:09.145Z,75.45
2023-11-15T05:43:11.340Z,78.01
2023-11-15T05:46:14.528Z,79.82
2023-11-15T05:49:17.105Z,80.94
2023-11-15T05:52:19.264Z,82.54
2023-11-15T05:55:21.412Z,79.87
2023-11-15T05:58:23.513Z,79.78
2023-11-15T06:01:25.457Z,79.63
2023-11-15T06:04:27.445Z,80.83
2023-11-15T06:07:32.483Z,81.56
2023-11-15T06:10:34.359Z,78.50
2023-11-15T06:13:37.683Z,79.70
2023-11-15T06:16:39.744Z,81.44
2023-11-15T06:19:45.615Z,81.12
2023-11-15T06:22:49.314Z,83.62
2023-11-15T06:25:51.308Z,80.14
2023-11-15T06:28:55.770Z,81.78
2023-11-15T06:31:57.711Z,81.14
2023-11-15T06:34:59.855Z,81.39
2023-11-15T06:38:05.217Z,84.09
2023-11-15T06:41:09.762Z,80.70
2023-11-15T06:44:11.698Z,76.86
2023-11-15T06:47:14.130Z,79.19
2023-11-15T06:50:17.472Z,75.45
2023-11-15T06:53:20.085Z,77.79
2023-11-15T06:56:22.074Z,78.38
2023-11-15T06:59:23.949Z,74.76
2023-11-15T07:02:26.780Z,69.57
2023-11-15T07:05:29.446Z,68.93
2023-11-15T07:08:33.147Z,67.07
2023-11-15T07:11:35.574Z,70.58
2023-11-15T07:14:37.845Z,71.16
2023-11-15T07:17:39.884Z,68.63
2023-11-15T07:20:43.133Z,69.19
2023-11-15T07:23:48.049Z,65.92
2023-11-15T07:26:50.717Z,67.91
2023-11-15T07:29:54.066Z,68.23
2023-11-15T07:32:57.080Z,68.09
2023-11-15T07:35:59.375Z,67.71
2023-11-15T07:39:02.498Z,64.89
2023-11-15T07:42:05.596Z,62.44
2023-11-15T07:45:09.906Z,60.23
2023-11-15T07:48:12.018Z,59.24
2023-11-15T07:51:14.189Z,62.34
2023-11-15T07:54:16.349Z,58.71
2023-11-15T07:57:21.467Z,59.05
2023-11-15T08:00:26.936Z,58.27
2023-11-15T08:03:32.848Z,56.20
2023-11-15T08:06:39.699Z,58.03
2023-11-15T08:09:42.554Z,56.49
2023-11-15T08:12:45.018Z,56.29
2023-11-15T08:15:47.865Z,55.01
2023-11-15T08:18:50.756Z,55.10
2023-11-15T08:21:55.550Z,55.37
2023-11-15T08:24:58.027Z,54.38
2023-11-15T08:28:02.692Z,54.21
2023-11-15T08:31:08.846Z,54.96
2023-11-15T08:34:11.741Z,55.23
2023-11-15T08:37:14.158Z,53.60
2023-11-15T08:40:26.145Z,53.80
2023-11-15T08:43:35.763Z,54.87
2023-11-15T08:46:46.576Z,53.90
2023-11-15T08:49:51.646Z,52.50
2023-11-15T08:53:01.886Z,53.90
2023-11-15T08:56:08.669Z,54.65
2023-11-15T08:59:15.399Z,53.39
2023-11-15T09:02:19.661Z,53.81
2023-11-15T09:05:24.494Z,52.19
2023-11-15T09:08:32.853Z,53.60
2023-11-15T09:11:36.067Z,55.10
2023-11-15T09:14:40.887Z,54.83
2023-11-15T09:17:53.964Z,53.72
2023-11-15T09:20:57.592Z,56.25
2023-11-15T09:24:00.005Z,55.37
2023-11-15T09:27:02.144Z,56.35
2023-11-15T09:30:07.048Z,56.01
2023-11-15T09:33:11.402Z,54.14
2023-11-15T09:36:14.076Z,54.82
2023-11-15T09:39:18.068Z,54.15
2023-11-15T09:42:21.309Z,54.22
2023-11-15T09:45:27.682Z,56.34
2023-11-15T09:48:29.750Z,55.27
2023-11-15T09:51:35.491Z,56.75
2023-11-15T09:54:38.296Z,57.47
2023-11-15T09:57:45.107Z,57.06
2023-11-15T10:00:48.231Z,57.51
2023-11-15T10:03:50.515Z,58.09
2023-11-15T10:07:05.654Z,57.41
2023-11-15T10:10:30.484Z,56.86
2023-11-15T10:13:33.499Z,58.15
2023-11-15T10:16:35.914Z,57.20
2023-11-15T10:19:38.100Z,56.23
2023-11-15T10:22:47.941Z,57.46
2023-11-15T10:25:53.987Z,56.75
2023-11-15T10:29:08.628Z,57.42
2023-11-15T10:32:10.999Z,57.29
2023-11-15T10:35:29.146Z,57.76
2023-11-15T10:38:36.730Z,56.50
2023-11-15T10:41:41.919Z,56.81
2023-11-15T10:44:49.293Z,57.21
2023-11-15T10:48:07.617Z,58.04
2023-11-15T10:51:14.870Z,55.50
2023-11-15T10:54:18.592Z,56.82
2023-11-15T10:57:20.922Z,58.16
2023-11-15T11:00:24.118Z,57.94
2023-11-15T11:03:28.825Z,57.86
2023-11-15T11:06:37.749Z,55.98
2023-11-15T11:09:59.205Z,56.31
2023-11-15T11:13:01.387Z,57.14
2023-11-15T11:16:28.637Z,56.72
2023-11-15T11:19:34.051Z,56.44
2023-11-15T11:22:37.051Z,56.56
2023-11-15T11:25:42.817Z,57.21
2023-11-15T11:29:04.766Z,56.11
2023-11-15T11:32:28.366Z,55.53
2023-11-15T11:35:36.249Z,55.58
2023-11-15T11:38:49.534Z,54.24
2023-11-15T11:41:51.724Z,53.48
2023-11-15T11:44:56.458Z,54.75
2023-11-15T11:47:58.727Z,55.43
2023-11-15T11:51:08.465Z,55.66
2023-11-15T11:54:20.285Z,54.72
2023-11-15T11:57:22.875Z,54.83
2023-11-15T12:00:25.303Z,53.83
2023-11-15T12:03:28.765Z,53.03
2023-11-15T12:06:30.901Z,52.40
2023-11-15T12:09:33.763Z,53.45
2023-11-15T12:12:35.912Z,54.33
2023-11-15T12:15:38.405Z,53.80
2023-11-15T12:18:40.397Z,53.33
2023-11-15T12:21:45.564Z,54.18
2023-11-15T12:24:47.669Z,55.67
2023-11-15T12:27:50.024Z,54.26
2023-11-15T12:30:55.567Z,55.53
2023-11-15T12:33:57.443Z,55.35
2023-11-15T12:36:59.765Z,54.37
2023-11-15T12:40:17.742Z,54.20
2023-11-15T12:43:23.479Z,52.82
2023-11-15T12:46:25.679Z,54.06
2023-11-15T12:49:28.020Z,54.29
2023-11-15T12:52:36.996Z,52.32
2023-11-15T12:55:53.199Z,52.53
2023-11-15T12:58:56.901Z,52.26
2023-11-15T13:01:59.049Z,52.61
2023-11-15T13:05:05.256Z,54.13
2023-11-15T13:08:07.776Z,53.67
2023-11-15T13:11:13.516Z,52.44
2023-11-15T13:14:19.721Z,52.34
2023-11-15T13:17:21.827Z,52.43
2023-11-15T13:20:24.596Z,51.22
2023-11-15T13:23:26.526Z,51.30
2023-11-15T13:26:28.659Z,49.26
2023-11-15T13:29:31.011Z,51.13
2023-11-15T13:32:37.411Z,51.61
2023-11-15T13:35:39.443Z,51.35
2023-11-15T13:38:41.757Z,50.58
2023-11-15T13:41:43.772Z,51.91
2023-11-15T13:44:46.274Z,52.68
2023-11-15T13:47:48.617Z,51.65
2023-11-15T13:50:50.964Z,51.68
2023-11-15T13:53:53.149Z,51.95
2023-11-15T13:56:57.595Z,53.62
2023-11-15T14:00:00.295Z,51.96
2023-11-15T14:03:07.511Z,52.05
2023-11-15T14:06:12.079Z,52.06
2023-11-15T14:09:14.810Z,51.37
2023-11-15T14:12:17.254Z,49.46
2023-11-15T14:15:22.456Z,50.52
2023-11-15T14:18:25.781Z,49.17
2023-11-15T14:21:27.933Z,49.41
2023-11-15T14:24:30.174Z,50.24
2023-11-15T14:27:32.364Z,51.85
2023-11-15T14:30:37.939Z,51.78
2023-11-15T14:33:40.237Z,49.83
2023-11-15T14:36:48.191Z,51.35
2023-11-15T14:39:50.263Z,51.47
2023-11-15T14:42:53.465Z,52.79
2023-11-15T14:45:55.630Z,52.55
2023-11-15T14:48:58.975Z,54.01
2023-11-15T14:52:08.843Z,54.05
2023-11-15T14:55:14.985Z,52.93
2023-11-15T14:58:19.522Z,53.48
2023-11-15T15:01:22.645Z,53.86
2023-11-15T15:04:24.828Z,53.79
2023-11-15T15:07:27.766Z,53.25
2023-11-15T15:10:29.943Z,54.12
2023-11-15T15:13:32.592Z,52.20
2023-11-15T15:16:34.541Z,53.25
2023-11-15T15:19:39.243Z,52.26
2023-11-15T15:22:41.346Z,52.82
2023-11-15T15:25:44.385Z,53.95
2023-11-15T15:28:46.409Z,53.58
2023-11-15T15:31:48.412Z,53.38
2023-11-15T15:34:50.650Z,52.35
2023-11-15T15:37:53.617Z,52.39
2023-11-15T15:40:55.582Z,53.67
2023-11-15T15:43:59.854Z,52.72
2023-11-15T15:47:01.861Z,53.31
2023-11-15T15:50:04.353Z,53.46
2023-11-15T15:53:08.659Z,52.56
2023-11-15T15:56:10.557Z,51.41
2023-11-15T15:59:12.542Z,51.28
2023-11-15T16:02:14.614Z,51.91
2023-11-15T16:05:19.249Z,52.26
2023-11-15T16:08:21.255Z,52.12
2023-11-15T16:11:23.367Z,50.36
2023-11-15T16:14:25.813Z,51.53
2023-11-15T16:17:31.109Z,51.09
2023-11-15T16:20:33.138Z,50.52
2023-11-15T16:23:35.262Z,50.89
2023-11-15T16:26:39.534Z,50.27
2023-11-15T16:29:41.489Z,49.98
2023-11-15T16:32:43.699Z,51.29
2023-11-15T16:35:45.719Z,50.05
2023-11-15T16:38:48.133Z,49.77
2023-11-15T16:41:50.550Z,50.36
2023-11-15T16:44:52.789Z,50.20
2023-11-15T16:47:54.925Z,50.42
2023-11-15T16:50:57.949Z,49.61
2023-11-15T16:53:59.960Z,52.32
2023-11-15T16:57:04.180Z,49.64
2023-11-15T17:00:07.152Z,49.86
2023-11-15T17:03:10.486Z,50.00
2023-11-15T17:06:15.747Z,52.02
2023-11-15T17:09:17.995Z,50.39
2023-11-15T17:12:20.340Z,50.69
2023-11-15T17:15:22.983Z,49.81
2023-11-15T17:18:25.192Z,50.92
2023-11-15T17:21:27.625Z,51.87
2023-11-15T17:24:29.932Z,51.57
2023-11-15T17:27:32.255Z,51.38
2023-11-15T17:30:34.701Z,50.41
2023-11-15T17:33:37.340Z,51.15
2023-11-15T17:36:41.791Z,51.02
2023-11-15T17:39:45.157Z,51.17
2023-11-15T17:42:47.292Z,50.52
2023-11-15T17:45:49.462Z,50.81
2023-11-15T17:49:17.364Z,51.54
2023-11-15T17:52:20.282Z,51.45
2023-11-15T17:55:22.368Z,50.94
2023-11-15T17:58:24.482Z,51.84
2023-11-15T18:01:31.422Z,51.42
2023-11-15T18:04:33.658Z,50.77
2023-11-15T18:07:36.666Z,50.61
2023-11-15T18:10:38.957Z,52.63
2023-11-15T18:13:41.165Z,51.93
2023-11-15T18:16:43.805Z,50.99
2023-11-15T18:19:45.913Z,52.53
2023-11-15T18:22:48.124Z,52.99
2023-11-15T18:25:52.555Z,50.99
2023-11-15T18:28:56.997Z,51.56
2023-11-15T18:31:59.115Z,52.83
2023-11-15T18:35:01.312Z,53.28
2023-11-15T18:38:05.206Z,52.58
2023-11-15T18:41:08.786Z,52.02
2023-11-15T18:44:11.133Z,53.23
2023-11-15T18:47:13.294Z,52.26
2023-11-15T18:50:20.445Z,51.24
2023-11-15T18:53:22.824Z,51.12
2023-11-15T18:56:27.982Z,51.76
2023-11-15T18:59:31.517Z,53.90
2023-11-15T19:02:33.762Z,52.64
2023-11-15T19:05:36.107Z,52.22
2023-11-15T19:08:38.296Z,52.73
2023-11-15T19:11:40.682Z,52.93
2023-11-15T19:14:42.873Z,53.80
2023-11-15T19:17:51.455Z,52.00
2023-11-15T19:20:54.002Z,51.81
2023-11-15T19:23:56.618Z,52.04
2023-11-15T19:26:58.860Z,51.44
2023-11-15T19:30:01.506Z,52.01
2023-11-15T19:33:04.359Z,51.27
2023-11-15T19:36:06.785Z,54.66
2023-11-15T19:42:38.353Z,53.25
2023-11-15T19:45:40.524Z,52.54
2023-11-15T19:48:42.795Z,54.29
2023-11-15T19:51:51.620Z,54.14
2023-11-15T19:54:58.804Z,54.99
2023-11-15T19:58:03.261Z,52.71
2023-11-15T20:01:09.928Z,54.08
2023-11-15T20:04:12.855Z,53.08
2023-11-15T20:07:16.544Z,55.97
2023-11-15T20:10:20.194Z,56.36
2023-11-15T20:13:22.364Z,55.07
2023-11-15T20:16:25.685Z,55.61
2023-11-15T20:19:27.818Z,55.97
2023-11-15T20:22:38.370Z,56.13
2023-11-15T20:25:50.452Z,56.55
2023-11-15T20:28:53.250Z,57.49
2023-11-15T20:31:55.532Z,56.03
2023-11-15T20:34:57.634Z,57.47
2023-11-15T20:38:00.058Z,58.27
2023-11-15T20:41:02.390Z,56.13
2023-11-15T20:44:04.722Z,57.46
2023-11-15T20:47:06.930Z,55.91
2023-11-15T20:50:09.720Z,55.50
2023-11-15T20:53:12.034Z,55.70
2023-11-15T20:56:14.223Z,56.51
2023-11-15T20:59:16.991Z,56.39
2023-11-15T21:02:19.176Z,57.80
2023-11-15T21:05:21.560Z,56.04
2023-11-15T21:08:23.713Z,54.91
2023-11-15T21:11:25.936Z,56.79
2023-11-15T21:14:28.422Z,55.19
2023-11-15T21:17:30.669Z,54.73
2023-11-15T21:20:37.545Z,56.13
2023-11-15T21:23:43.271Z,56.06
2023-11-15T21:26:46.209Z,57.22
2023-11-15T21:29:48.304Z,57.34
2023-11-15T21:32:52.524Z,57.70
2023-11-15T21:35:54.673Z,56.04
2023-11-15T21:38:56.813Z,58.04
2023-11-15T21:41:59.292Z,57.95
2023-11-15T21:45:01.472Z,57.22
2023-11-15T21:48:04.123Z,55.69
2023-11-15T21:51:06.647Z,56.15
2023-11-15T21:54:09.004Z,55.88
2023-11-15T21:57:47.173Z,56.56
2023-11-15T22:00:50.290Z,56.74
2023-11-15T22:03:52.927Z,57.16
2023-11-15T22:07:02.051Z,56.81
2023-11-15T22:10:14.137Z,57.17
2023-11-15T22:13:16.814Z,58.46
2023-11-15T22:16:18.892Z,58.13
2023-11-15T22:19:21.045Z,56.15
2023-11-15T22:22:23.752Z,57.50
2023-11-15T22:25:25.902Z,57.73
2023-11-15T22:28:29.810Z,56.60
2023-11-15T22:31:35.166Z,56.81
2023-11-15T22:34:37.348Z,56.75
2023-11-15T22:37:39.545Z,56.52
2023-11-15T22:40:41.706Z,55.59
2023-11-15T22:43:43.841Z,57.05
2023-11-15T22:46:46.374Z,57.18
2023-11-15T22:49:48.512Z,57.94
2023-11-15T22:52:50.716Z,56.50
2023-11-15T22:55:52.849Z,54.94
2023-11-15T22:58:55.089Z,54.82
2023-11-15T23:01:57.226Z,58.31
2023-11-15T23:04:59.466Z,58.26
2023-11-15T23:08:01.745Z,57.75
2023-11-15T23:11:03.946Z,56.66
2023-11-15T23:14:09.973Z,56.19
2023-11-15T23:17:12.093Z,57.79
2023-11-15T23:20:14.256Z,58.11
2023-11-15T23:23:19.859Z,59.28
2023-11-15T23:26:35.242Z,57.92
2023-11-15T23:29:37.552Z,57.27
2023-11-15T23:32:39.643Z,57.34
2023-11-15T23:35:41.817Z,57.62
2023-11-15T23:38:44.199Z,58.26
2023-11-15T23:41:46.293Z,57.24
2023-11-15T23:44:48.476Z,56.51
2023-11-15T23:47:51.490Z,56.33
2023-11-15T23:50:54.669Z,57.33
2023-11-15T23:53:57.585Z,59.24
2023-11-15T23:56:59.964Z,57.58
